Time;durP1;ratioP1;P1;durP2;ratioP2;P2;SDS_P1;SDS_P2;PMS_P1;PMS_P2;Temp;Humidity;BMP_temperature;BMP_pressure;BME280_temperature;BME280_humidity;BME280_pressure;Samples;Min_cycle;Max_cycle;Signal;HPM_P1;HPM_P2
2021/09/10 00:00:13;;;;;;;9.60;8.55;;;16.40;95.70;;;;;;5030895;28;20201;-87
2021/09/10 00:02:40;;;;;;;9.60;8.60;;;16.30;95.80;;;;;;5035975;28;20690;-86
2021/09/10 00:05:09;;;;;;;12.02;8.70;;;16.20;96.00;;;;;;5033608;28;20229;-87
2021/09/10 00:07:36;;;;;;;9.77;8.75;;;16.20;96.20;;;;;;5037006;28;20226;-86
2021/09/10 00:10:04;;;;;;;9.05;8.15;;;16.20;96.20;;;;;;5036299;28;20282;-87
2021/09/10 00:12:31;;;;;;;10.65;8.80;;;16.20;96.00;;;;;;5034775;28;20226;-87
2021/09/10 00:15:00;;;;;;;9.60;8.70;;;16.10;96.00;;;;;;5033819;28;20325;-88
2021/09/10 00:17:27;;;;;;;8.93;8.13;;;16.10;96.30;;;;;;5029866;28;20231;-87
2021/09/10 00:19:54;;;;;;;9.02;8.13;;;16.00;96.30;;;;;;5034643;28;20281;-87
2021/09/10 00:22:21;;;;;;;9.55;8.60;;;16.00;96.30;;;;;;5034627;28;20234;-86
2021/09/10 00:24:48;;;;;;;11.02;9.05;;;16.00;96.70;;;;;;5044524;28;20296;-86
2021/09/10 00:27:15;;;;;;;10.70;9.30;;;16.10;96.40;;;;;;5039455;28;20583;-88
2021/09/10 00:29:42;;;;;;;10.57;9.48;;;16.10;96.30;;;;;;5032859;28;20295;-87
2021/09/10 00:32:11;;;;;;;9.63;8.63;;;16.20;96.20;;;;;;5038206;28;20305;-88
2021/09/10 00:34:38;;;;;;;10.05;9.05;;;16.10;96.10;;;;;;5030713;28;20280;-90
2021/09/10 00:37:05;;;;;;;10.32;9.20;;;16.00;96.30;;;;;;5034545;28;21656;-90
2021/09/10 00:39:32;;;;;;;11.85;9.27;;;15.90;96.60;;;;;;5031347;28;20209;-90
2021/09/10 00:41:59;;;;;;;9.60;8.63;;;15.90;97.10;;;;;;5030543;28;20323;-90
2021/09/10 00:44:26;;;;;;;9.32;8.45;;;15.90;96.80;;;;;;5034143;28;20208;-90
2021/09/10 00:46:54;;;;;;;9.15;8.25;;;15.90;96.80;;;;;;5035249;28;21291;-90
2021/09/10 00:49:22;;;;;;;10.60;8.70;;;15.90;96.90;;;;;;5030828;28;20213;-90
2021/09/10 00:51:50;;;;;;;10.05;8.40;;;15.90;96.80;;;;;;5028480;28;20312;-90
2021/09/10 00:54:16;;;;;;;9.63;8.60;;;16.00;96.70;;;;;;5038131;28;20257;-87
2021/09/10 00:56:44;;;;;;;9.75;8.75;;;16.10;96.60;;;;;;5026049;28;20230;-87
2021/09/10 00:59:11;;;;;;;10.00;8.98;;;16.10;96.30;;;;;;5025007;28;20268;-87
2021/09/10 01:01:38;;;;;;;10.07;8.55;;;16.00;96.20;;;;;;5019227;28;20673;-87
2021/09/10 01:04:05;;;;;;;10.10;8.48;;;16.00;96.30;;;;;;5035615;28;20207;-88
2021/09/10 01:06:34;;;;;;;8.70;7.78;;;16.00;96.50;;;;;;5026956;28;20229;-87
2021/09/10 01:09:02;;;;;;;9.43;8.52;;;16.00;96.70;;;;;;5034689;28;20199;-91
2021/09/10 01:11:29;;;;;;;8.98;7.75;;;16.00;96.60;;;;;;5027970;28;20225;-89
2021/09/10 01:13:57;;;;;;;9.02;8.13;;;16.00;96.60;;;;;;5033970;28;20198;-89
2021/09/10 01:16:25;;;;;;;9.70;8.40;;;15.90;96.60;;;;;;5033485;28;20228;-90
2021/09/10 01:18:52;;;;;;;9.10;8.15;;;16.00;96.60;;;;;;5030092;28;20289;-90
2021/09/10 01:21:19;;;;;;;9.15;8.05;;;16.00;96.50;;;;;;5033130;28;20225;-90
2021/09/10 01:23:47;;;;;;;10.77;8.57;;;15.90;96.50;;;;;;5029530;28;20209;-90
2021/09/10 01:26:16;;;;;;;8.77;7.97;;;15.80;96.50;;;;;;5031808;28;20227;-90
2021/09/10 01:28:43;;;;;;;9.18;8.38;;;15.80;96.80;;;;;;5029526;28;20256;-89
2021/09/10 01:31:10;;;;;;;10.05;8.95;;;15.70;97.10;;;;;;5034488;28;20228;-90
2021/09/10 01:33:37;;;;;;;9.20;8.27;;;15.80;97.10;;;;;;5039168;28;20222;-89
2021/09/10 01:36:04;;;;;;;10.80;8.50;;;15.70;96.80;;;;;;5027352;28;20241;-90
2021/09/10 01:38:31;;;;;;;11.90;9.05;;;15.60;97.00;;;;;;5043430;28;20228;-90
2021/09/10 01:40:59;;;;;;;9.48;8.57;;;15.40;97.00;;;;;;5031088;28;20592;-88
2021/09/10 01:43:27;;;;;;;11.75;8.55;;;15.30;97.00;;;;;;5042713;28;20281;-88
2021/09/10 01:45:54;;;;;;;10.43;8.73;;;15.30;97.40;;;;;;5034362;28;20256;-89
2021/09/10 01:48:21;;;;;;;9.05;8.18;;;15.20;97.50;;;;;;5031370;28;20201;-89
2021/09/10 01:50:48;;;;;;;9.75;8.73;;;15.30;97.60;;;;;;5033750;28;20231;-88
2021/09/10 01:53:15;;;;;;;9.90;8.45;;;15.20;97.60;;;;;;5030698;28;20286;-88
2021/09/10 01:55:42;;;;;;;9.57;8.25;;;15.30;97.60;;;;;;5028968;28;20236;-87
2021/09/10 01:58:09;;;;;;;9.38;8.43;;;15.30;97.40;;;;;;5038116;28;20219;-89
2021/09/10 02:00:37;;;;;;;9.27;8.15;;;15.30;97.70;;;;;;5034993;28;20741;-89
2021/09/10 02:03:04;;;;;;;11.85;8.60;;;15.20;97.80;;;;;;5043568;28;20240;-89
2021/09/10 02:05:31;;;;;;;9.55;8.32;;;15.20;98.20;;;;;;5026581;28;20223;-89
2021/09/10 02:07:58;;;;;;;9.23;8.32;;;15.20;98.20;;;;;;5031652;28;20217;-89
2021/09/10 02:10:25;;;;;;;9.15;8.07;;;15.30;98.10;;;;;;5025521;28;20221;-89
2021/09/10 02:12:52;;;;;;;8.82;7.95;;;15.40;97.80;;;;;;5031747;28;20669;-89
2021/09/10 02:15:19;;;;;;;9.45;8.23;;;15.50;97.60;;;;;;5030871;28;20233;-89
2021/09/10 02:17:48;;;;;;;8.65;7.68;;;15.60;97.10;;;;;;5024820;28;20206;-89
2021/09/10 02:20:15;;;;;;;8.55;7.75;;;15.70;97.10;;;;;;5031883;28;20277;-89
2021/09/10 02:22:44;;;;;;;8.68;7.80;;;15.80;97.10;;;;;;5033013;28;20209;-89
2021/09/10 02:25:11;;;;;;;8.40;7.70;;;15.70;97.10;;;;;;5028488;28;20209;-89
2021/09/10 02:27:38;;;;;;;11.40;7.90;;;15.70;97.10;;;;;;5033841;28;20234;-90
2021/09/10 02:30:06;;;;;;;8.32;7.53;;;15.80;97.10;;;;;;5031777;28;20230;-89
2021/09/10 02:32:32;;;;;;;8.00;7.28;;;15.70;97.10;;;;;;5031456;28;20824;-89
2021/09/10 02:35:01;;;;;;;9.88;7.80;;;15.70;97.10;;;;;;5033436;28;20194;-88
2021/09/10 02:37:28;;;;;;;9.57;7.57;;;15.80;96.70;;;;;;5026008;28;20249;-90
2021/09/10 02:39:55;;;;;;;9.15;7.57;;;15.80;96.50;;;;;;5044729;28;20206;-89
2021/09/10 02:42:22;;;;;;;8.52;7.72;;;15.80;96.50;;;;;;5035080;28;20230;-89
2021/09/10 02:44:49;;;;;;;8.43;7.57;;;15.70;96.70;;;;;;5032267;28;20214;-89
2021/09/10 02:47:17;;;;;;;7.70;7.00;;;15.60;96.60;;;;;;5037814;28;20229;-89
2021/09/10 02:49:44;;;;;;;10.05;7.80;;;15.60;96.90;;;;;;5038818;28;20202;-89
2021/09/10 02:52:13;;;;;;;9.32;7.63;;;15.60;96.70;;;;;;5034831;28;20222;-89
2021/09/10 02:54:40;;;;;;;9.40;7.43;;;15.50;97.00;;;;;;5026973;28;20205;-89
2021/09/10 02:57:06;;;;;;;8.60;7.78;;;15.40;97.00;;;;;;5037622;28;20590;-89
2021/09/10 02:59:34;;;;;;;9.15;8.20;;;15.40;97.00;;;;;;5029693;28;20563;-89
2021/09/10 03:02:01;;;;;;;9.32;7.82;;;15.30;97.00;;;;;;5036034;28;20236;-88
2021/09/10 03:04:28;;;;;;;8.95;8.05;;;15.20;97.00;;;;;;5043783;28;20197;-89
2021/09/10 03:06:55;;;;;;;9.00;8.10;;;15.20;97.40;;;;;;5042506;28;20218;-89
2021/09/10 03:09:23;;;;;;;13.32;11.93;;;15.10;97.50;;;;;;5035012;28;20603;-89
2021/09/10 03:11:50;;;;;;;9.82;8.35;;;15.10;97.70;;;;;;5026139;28;20223;-88
2021/09/10 03:14:18;;;;;;;10.80;8.63;;;15.20;97.60;;;;;;5023947;28;20965;-88
2021/09/10 03:16:45;;;;;;;8.40;7.60;;;15.20;97.60;;;;;;5035185;28;20228;-88
2021/09/10 03:19:12;;;;;;;9.57;8.57;;;15.20;97.50;;;;;;5033691;28;20199;-89
2021/09/10 03:21:39;;;;;;;8.43;7.63;;;15.20;97.50;;;;;;5032336;28;20234;-90
2021/09/10 03:24:07;;;;;;;9.32;8.45;;;15.30;97.60;;;;;;5035756;28;20206;-91
2021/09/10 03:26:36;;;;;;;8.77;7.95;;;15.30;97.40;;;;;;5033682;28;20309;-91
2021/09/10 03:29:03;;;;;;;9.20;8.25;;;15.20;97.50;;;;;;5034046;28;20229;-89
2021/09/10 03:31:30;;;;;;;8.85;7.57;;;15.10;97.30;;;;;;5032811;28;20299;-90
2021/09/10 03:33:57;;;;;;;10.70;9.70;;;15.00;97.80;;;;;;5037189;28;20240;-91
2021/09/10 03:36:24;;;;;;;9.32;8.43;;;14.90;98.00;;;;;;5034322;28;20705;-90
2021/09/10 03:38:51;;;;;;;9.82;8.45;;;14.90;98.30;;;;;;5034012;28;20202;-90
2021/09/10 03:41:18;;;;;;;10.98;8.45;;;14.80;98.40;;;;;;5034458;28;20232;-90
2021/09/10 03:43:49;;;;;;;9.95;8.43;;;14.70;98.70;;;;;;5039217;28;20293;-92
2021/09/10 03:46:16;;;;;;;9.73;8.35;;;14.80;98.80;;;;;;5031285;28;20222;-90
2021/09/10 03:48:43;;;;;;;10.27;8.30;;;14.90;98.60;;;;;;5037419;28;20564;-90
2021/09/10 03:51:10;;;;;;;9.00;8.10;;;15.00;98.50;;;;;;5029536;28;20233;-91
2021/09/10 03:53:37;;;;;;;9.70;8.70;;;15.00;98.30;;;;;;5031486;28;20198;-91
2021/09/10 03:56:05;;;;;;;11.57;8.52;;;14.90;98.50;;;;;;5033335;28;20222;-90
2021/09/10 03:58:32;;;;;;;9.88;8.45;;;14.80;98.80;;;;;;5035073;28;20203;-91
2021/09/10 04:01:01;;;;;;;9.20;8.35;;;14.80;99.00;;;;;;5032706;28;20309;-91
2021/09/10 04:03:28;;;;;;;8.73;7.82;;;14.90;99.00;;;;;;5028082;28;20198;-91
2021/09/10 04:05:55;;;;;;;10.38;8.63;;;14.90;98.70;;;;;;5032269;28;20313;-88
2021/09/10 04:08:22;;;;;;;9.20;8.30;;;14.90;98.60;;;;;;5033296;28;20245;-88
2021/09/10 04:10:49;;;;;;;9.90;7.95;;;14.90;98.50;;;;;;5023491;28;20242;-88
2021/09/10 04:13:16;;;;;;;8.75;7.90;;;14.90;98.80;;;;;;5032960;28;20199;-91
2021/09/10 04:15:43;;;;;;;9.77;8.20;;;14.90;98.90;;;;;;5027454;28;20253;-91
2021/09/10 04:18:11;;;;;;;8.82;7.57;;;14.90;98.80;;;;;;5024922;28;20209;-91
2021/09/10 04:20:39;;;;;;;9.73;7.93;;;15.00;98.70;;;;;;5032961;28;20309;-91
2021/09/10 04:23:06;;;;;;;9.35;8.23;;;14.90;98.50;;;;;;5024982;28;20281;-90
2021/09/10 04:25:33;;;;;;;10.27;8.60;;;15.00;98.30;;;;;;5032922;28;20289;-91
2021/09/10 04:28:00;;;;;;;10.50;8.50;;;15.00;98.20;;;;;;5027412;28;20195;-90
2021/09/10 04:30:27;;;;;;;9.30;8.02;;;15.00;98.20;;;;;;5030614;28;20326;-91
2021/09/10 04:32:54;;;;;;;10.57;7.88;;;14.90;98.40;;;;;;5026981;28;20222;-91
2021/09/10 04:35:23;;;;;;;8.75;7.85;;;14.90;98.40;;;;;;5032304;28;20237;-90
2021/09/10 04:37:49;;;;;;;9.63;8.73;;;14.90;98.40;;;;;;5034740;28;20206;-90
2021/09/10 04:40:18;;;;;;;8.65;7.85;;;14.90;98.20;;;;;;5029611;28;20285;-90
2021/09/10 04:42:45;;;;;;;10.25;8.77;;;14.90;98.20;;;;;;5035994;28;20207;-92
2021/09/10 04:45:13;;;;;;;9.32;8.32;;;14.80;98.20;;;;;;5028523;28;20252;-90
2021/09/10 04:47:40;;;;;;;9.45;8.32;;;14.70;98.50;;;;;;5028832;28;20237;-90
2021/09/10 04:50:08;;;;;;;8.82;7.93;;;14.70;98.60;;;;;;5034064;28;20199;-91
2021/09/10 04:52:38;;;;;;;8.88;7.90;;;14.70;98.60;;;;;;5037058;28;20720;-91
2021/09/10 04:55:06;;;;;;;9.07;8.18;;;14.70;98.60;;;;;;5042576;28;20202;-90
2021/09/10 04:57:33;;;;;;;9.43;8.45;;;14.60;98.70;;;;;;5032303;28;20705;-90
2021/09/10 05:00:00;;;;;;;9.93;8.38;;;14.60;98.90;;;;;;5026831;28;20199;-91
2021/09/10 05:02:28;;;;;;;8.73;7.82;;;14.70;98.80;;;;;;5029760;28;20219;-89
2021/09/10 05:04:55;;;;;;;10.70;8.43;;;14.70;98.70;;;;;;5034798;28;20250;-90
2021/09/10 05:07:22;;;;;;;9.40;8.50;;;14.80;98.50;;;;;;5029927;28;20308;-90
2021/09/10 05:09:51;;;;;;;9.32;8.30;;;14.80;98.40;;;;;;5035152;28;20208;-90
2021/09/10 05:12:18;;;;;;;9.60;8.35;;;14.70;98.60;;;;;;5033615;28;20226;-91
2021/09/10 05:14:45;;;;;;;10.25;8.05;;;14.80;98.70;;;;;;5026148;28;20199;-91
2021/09/10 05:17:12;;;;;;;9.98;8.50;;;14.80;98.60;;;;;;5027372;28;20585;-90
2021/09/10 05:19:39;;;;;;;10.02;8.80;;;14.80;98.50;;;;;;5027346;28;20206;-91
2021/09/10 05:22:06;;;;;;;11.02;8.45;;;14.90;98.40;;;;;;5023227;28;20222;-90
2021/09/10 05:24:33;;;;;;;10.52;8.32;;;14.90;98.30;;;;;;5019381;28;20285;-91
2021/09/10 05:27:03;;;;;;;11.13;8.70;;;14.90;98.20;;;;;;5025052;28;20234;-90
2021/09/10 05:29:30;;;;;;;9.85;8.25;;;14.90;98.00;;;;;;5032608;28;20194;-91
2021/09/10 05:31:57;;;;;;;9.90;8.02;;;14.90;98.10;;;;;;5032527;28;20326;-90
2021/09/10 05:34:24;;;;;;;9.15;7.85;;;14.90;98.10;;;;;;5026870;28;20351;-91
2021/09/10 05:36:52;;;;;;;9.20;8.02;;;14.90;98.10;;;;;;5024113;28;20257;-91
2021/09/10 05:39:19;;;;;;;9.65;8.25;;;14.90;98.20;;;;;;5024618;28;20278;-91
2021/09/10 05:41:46;;;;;;;9.00;7.90;;;14.80;98.20;;;;;;5030020;28;20309;-91
2021/09/10 05:44:15;;;;;;;9.85;7.63;;;14.90;98.30;;;;;;5031659;28;20277;-90
2021/09/10 05:46:42;;;;;;;9.57;7.72;;;14.90;98.20;;;;;;5029934;28;20223;-91
2021/09/10 05:49:10;;;;;;;9.23;7.47;;;15.00;98.10;;;;;;5028465;28;20195;-90
2021/09/10 05:51:37;;;;;;;8.25;7.45;;;15.00;98.00;;;;;;5027409;28;20264;-89
2021/09/10 05:54:05;;;;;;;8.45;7.50;;;15.10;97.90;;;;;;5033994;28;20234;-90
2021/09/10 05:56:32;;;;;;;9.43;8.15;;;15.20;97.60;;;;;;5031672;28;20317;-90
2021/09/10 05:58:59;;;;;;;11.45;7.95;;;15.30;97.70;;;;;;5029785;28;20194;-90
2021/09/10 06:01:28;;;;;;;8.68;7.78;;;15.40;97.60;;;;;;5036265;28;20704;-89
2021/09/10 06:03:55;;;;;;;8.32;7.40;;;15.40;97.60;;;;;;5034420;28;20203;-89
2021/09/10 06:06:22;;;;;;;8.10;7.30;;;15.50;97.50;;;;;;5030928;28;20226;-90
2021/09/10 06:08:49;;;;;;;9.88;7.95;;;15.60;97.30;;;;;;5027064;28;20214;-90
2021/09/10 06:11:16;;;;;;;14.63;7.93;;;15.60;97.00;;;;;;5025729;28;20219;-90
2021/09/10 06:13:43;;;;;;;9.27;7.97;;;15.70;97.10;;;;;;5033903;28;20217;-90
2021/09/10 06:16:10;;;;;;;8.88;7.57;;;15.70;97.10;;;;;;5027617;28;20237;-89
2021/09/10 06:18:39;;;;;;;9.13;8.15;;;15.80;97.10;;;;;;5018886;28;20202;-89
2021/09/10 06:21:06;;;;;;;8.95;8.05;;;15.90;97.10;;;;;;5013424;28;20245;-90
2021/09/10 06:23:33;;;;;;;10.68;7.88;;;16.40;96.90;;;;;;5016757;28;20234;-89
2021/09/10 06:26:01;;;;;;;7.85;7.05;;;16.50;95.70;;;;;;5031568;28;20308;-89
2021/09/10 06:28:28;;;;;;;9.00;7.03;;;16.60;95.40;;;;;;5025934;28;20195;-89
2021/09/10 06:30:55;;;;;;;10.07;8.70;;;16.70;95.00;;;;;;5023535;28;20706;-91
2021/09/10 06:33:22;;;;;;;21.73;17.80;;;16.70;94.50;;;;;;5025409;28;20306;-88
2021/09/10 06:35:51;;;;;;;11.20;8.05;;;16.90;94.50;;;;;;5025920;28;20318;-88
2021/09/10 06:38:18;;;;;;;32.13;28.70;;;17.10;93.60;;;;;;5028622;28;20261;-87
2021/09/10 06:40:45;;;;;;;51.33;44.47;;;17.30;93.00;;;;;;5029197;28;20237;-89
2021/09/10 06:43:12;;;;;;;58.28;50.30;;;17.60;92.20;;;;;;5031107;28;20269;-86
2021/09/10 06:45:39;;;;;;;38.20;31.75;;;17.70;92.10;;;;;;5029580;28;20233;-87
2021/09/10 06:48:06;;;;;;;15.40;13.80;;;17.80;91.60;;;;;;5028078;28;20202;-89
2021/09/10 06:50:33;;;;;;;13.05;10.77;;;17.80;91.60;;;;;;5029366;28;20330;-89
2021/09/10 06:53:01;;;;;;;11.77;8.57;;;17.80;91.80;;;;;;5029780;28;20290;-88
2021/09/10 06:55:28;;;;;;;9.40;8.35;;;17.70;92.10;;;;;;5028829;28;20644;-86
2021/09/10 06:57:55;;;;;;;12.27;10.73;;;17.80;92.10;;;;;;5030989;28;20298;-87
2021/09/10 07:00:25;;;;;;;23.38;20.98;;;17.80;92.10;;;;;;5024581;28;20199;-87
2021/09/10 07:02:53;;;;;;;29.35;24.92;;;17.90;92.10;;;;;;5024913;28;20231;-87
2021/09/10 07:05:20;;;;;;;13.27;11.27;;;18.00;92.20;;;;;;5025588;28;20197;-87
2021/09/10 07:07:47;;;;;;;13.52;12.13;;;18.10;91.50;;;;;;5025515;28;20656;-87
2021/09/10 07:10:19;;;;;;;15.65;13.68;;;18.10;91.70;;;;;;5028580;28;20202;-87
2021/09/10 07:12:46;;;;;;;11.98;8.02;;;18.20;91.30;;;;;;5023929;28;20274;-88
2021/09/10 07:15:13;;;;;;;11.90;7.25;;;18.20;91.40;;;;;;5023530;28;20206;-88
2021/09/10 07:17:40;;;;;;;8.20;7.32;;;18.30;91.00;;;;;;5023882;28;20234;-88
2021/09/10 07:20:08;;;;;;;7.85;7.13;;;18.30;90.40;;;;;;5023594;28;20290;-88
2021/09/10 07:22:35;;;;;;;8.23;6.70;;;18.40;89.90;;;;;;5023949;28;20231;-88
2021/09/10 07:25:02;;;;;;;9.55;6.88;;;18.50;87.90;;;;;;5024505;28;20199;-89
2021/09/10 07:27:31;;;;;;;9.48;6.45;;;18.50;86.90;;;;;;5026347;28;20244;-89
2021/09/10 07:29:58;;;;;;;6.82;6.22;;;18.60;87.10;;;;;;5023722;28;20282;-88
2021/09/10 07:32:25;;;;;;;7.20;6.50;;;18.70;86.60;;;;;;5021621;28;20226;-88
2021/09/10 07:34:52;;;;;;;7.82;6.47;;;18.80;85.20;;;;;;5025604;28;20206;-85
2021/09/10 07:37:24;;;;;;;6.93;6.30;;;18.90;84.90;;;;;;5029930;28;20305;-86
2021/09/10 07:39:51;;;;;;;7.05;6.10;;;18.90;84.00;;;;;;5023973;28;20289;-86
2021/09/10 07:42:18;;;;;;;7.30;5.70;;;19.00;84.30;;;;;;5027659;28;20226;-86
2021/09/10 07:44:47;;;;;;;7.60;6.63;;;19.10;82.90;;;;;;5037020;28;20672;-88
2021/09/10 07:47:15;;;;;;;6.60;6.00;;;19.20;80.20;;;;;;5025871;28;20609;-89
2021/09/10 07:49:42;;;;;;;8.50;6.22;;;19.20;80.20;;;;;;5033933;28;20289;-88
2021/09/10 07:52:09;;;;;;;7.82;5.82;;;19.30;80.40;;;;;;5029652;28;20707;-88
2021/09/10 07:54:36;;;;;;;7.43;5.93;;;19.40;80.40;;;;;;5030641;28;20201;-89
2021/09/10 07:57:03;;;;;;;10.02;6.18;;;19.50;80.50;;;;;;5031509;28;20223;-88
2021/09/10 07:59:31;;;;;;;11.90;7.05;;;19.50;80.50;;;;;;5030641;28;20674;-87
2021/09/10 08:01:59;;;;;;;11.10;6.30;;;19.60;80.50;;;;;;5032789;28;20304;-90
2021/09/10 08:04:26;;;;;;;6.68;5.97;;;19.70;77.40;;;;;;5036063;28;20205;-90
2021/09/10 08:06:53;;;;;;;7.13;6.43;;;19.80;73.30;;;;;;5019575;28;20225;-89
2021/09/10 08:09:20;;;;;;;9.20;6.22;;;19.90;71.20;;;;;;5029288;28;20569;-90
2021/09/10 08:11:47;;;;;;;6.88;6.18;;;19.90;72.50;;;;;;5033767;28;20257;-90
2021/09/10 08:14:14;;;;;;;8.10;6.20;;;20.00;73.40;;;;;;5026821;28;20225;-90
2021/09/10 08:16:41;;;;;;;7.53;6.10;;;20.10;73.90;;;;;;5030035;28;20309;-89
2021/09/10 08:19:10;;;;;;;6.50;5.90;;;20.10;70.70;;;;;;5035041;28;20209;-88
2021/09/10 08:21:37;;;;;;;8.48;6.15;;;20.20;68.70;;;;;;5032190;28;20365;-88
2021/09/10 08:24:05;;;;;;;7.10;6.10;;;20.20;70.90;;;;;;5037645;28;20217;-88
2021/09/10 08:26:32;;;;;;;7.47;6.70;;;20.30;68.70;;;;;;5036495;28;20690;-88
2021/09/10 08:28:59;;;;;;;6.90;6.03;;;20.30;68.10;;;;;;5033203;28;20211;-88
2021/09/10 08:31:26;;;;;;;74.20;66.88;;;20.40;64.80;;;;;;5030585;28;20302;-88
2021/09/10 08:33:53;;;;;;;8.82;6.90;;;20.50;66.20;;;;;;5032763;28;20654;-88
2021/09/10 08:36:22;;;;;;;9.18;6.38;;;20.60;65.60;;;;;;5032852;28;20224;-88
2021/09/10 08:38:50;;;;;;;8.55;6.18;;;20.60;65.90;;;;;;5033506;28;20226;-88
2021/09/10 08:41:20;;;;;;;6.95;5.72;;;20.70;63.00;;;;;;5032133;28;20222;-89
2021/09/10 08:43:48;;;;;;;7.25;6.15;;;20.80;61.50;;;;;;5030279;28;20689;-88
2021/09/10 08:46:15;;;;;;;7.43;6.25;;;20.90;62.30;;;;;;5038467;28;20277;-86
2021/09/10 08:48:44;;;;;;;11.23;5.57;;;21.10;62.10;;;;;;5041181;28;20277;-87
2021/09/10 08:51:11;;;;;;;6.97;5.65;;;21.40;60.10;;;;;;5035837;28;20222;-87
2021/09/10 08:53:39;;;;;;;5.72;5.22;;;22.00;58.70;;;;;;5044189;28;20194;-82
2021/09/10 08:56:07;;;;;;;8.55;5.82;;;23.20;55.00;;;;;;5035030;28;20226;-85
2021/09/10 08:58:34;;;;;;;7.15;5.10;;;24.60;43.50;;;;;;5048704;28;20225;-87
2021/09/10 09:01:02;;;;;;;7.13;5.50;;;25.90;36.80;;;;;;5033438;28;20312;-86
2021/09/10 09:03:29;;;;;;;5.93;5.40;;;27.30;32.90;;;;;;5030592;28;20202;-86
2021/09/10 09:05:57;;;;;;;6.40;5.72;;;27.70;29.50;;;;;;5029919;28;20219;-86
2021/09/10 09:08:24;;;;;;;7.80;5.57;;;29.10;24.80;;;;;;5034850;28;20202;-86
2021/09/10 09:11:09;;;;;;;6.68;5.63;;;30.60;21.50;;;;;;5024603;28;20232;-86
2021/09/10 09:13:38;;;;;;;6.50;5.90;;;32.00;17.60;;;;;;5030834;28;20194;-86
2021/09/10 09:16:14;;;;;;;8.15;5.90;;;32.30;17.80;;;;;;5033320;28;20571;-87
2021/09/10 09:18:42;;;;;;;7.43;6.20;;;32.40;17.80;;;;;;5030430;28;20223;-86
2021/09/10 09:21:09;;;;;;;6.28;5.72;;;32.20;17.70;;;;;;5034038;28;20228;-86
2021/09/10 09:23:36;;;;;;;6.75;6.22;;;32.60;17.90;;;;;;5033424;28;20846;-86
2021/09/10 09:26:15;;;;;;;9.07;5.65;;;33.50;16.60;;;;;;5033322;28;20229;-86
2021/09/10 09:28:42;;;;;;;7.30;6.13;;;33.40;16.30;;;;;;5029609;28;20649;-87
2021/09/10 09:31:10;;;;;;;8.02;5.95;;;33.20;16.40;;;;;;5034939;28;20222;-86
2021/09/10 09:33:39;;;;;;;6.75;6.13;;;33.10;18.10;;;;;;5027709;28;20241;-90
2021/09/10 09:36:09;;;;;;;9.88;6.60;;;34.00;16.80;;;;;;5031879;28;20229;-89
2021/09/10 09:38:38;;;;;;;8.07;6.55;;;35.30;14.90;;;;;;5037509;28;20286;-90
2021/09/10 09:41:09;;;;;;;6.57;6.03;;;35.90;13.60;;;;;;5035077;28;20325;-90
2021/09/10 09:43:38;;;;;;;6.70;6.20;;;36.20;13.60;;;;;;5027244;28;20191;-90
2021/09/10 09:46:08;;;;;;;7.28;6.50;;;36.60;12.90;;;;;;5031527;28;20316;-90
2021/09/10 09:48:38;;;;;;;6.97;6.05;;;36.30;12.30;;;;;;5028470;28;20197;-90
2021/09/10 09:51:06;;;;;;;7.45;6.68;;;35.90;12.50;;;;;;5033055;28;20229;-90
2021/09/10 09:53:34;;;;;;;7.82;7.10;;;36.60;12.90;;;;;;5035086;28;20618;-90
2021/09/10 09:56:02;;;;;;;7.40;6.70;;;36.90;12.60;;;;;;5033278;28;20309;-90
2021/09/10 09:58:32;;;;;;;7.93;7.25;;;37.30;12.50;;;;;;5038302;28;20221;-90
2021/09/10 10:00:59;;;;;;;8.30;7.60;;;36.20;12.20;;;;;;5028196;28;20226;-90
2021/09/10 10:03:26;;;;;;;7.32;6.70;;;36.40;13.30;;;;;;5037198;28;20239;-89
2021/09/10 10:06:07;;;;;;;7.07;6.55;;;35.50;14.00;;;;;;5032775;28;20583;-90
2021/09/10 10:08:41;;;;;;;7.57;6.95;;;35.40;13.00;;;;;;5032510;28;20198;-90
2021/09/10 10:11:11;;;;;;;9.73;6.80;;;34.50;13.60;;;;;;5033507;28;20223;-90
2021/09/10 10:13:44;;;;;;;7.70;6.65;;;34.00;15.40;;;;;;5028037;28;20216;-90
2021/09/10 10:16:34;;;;;;;7.18;6.57;;;34.50;14.70;;;;;;5014827;28;20230;-89
2021/09/10 10:19:01;;;;;;;6.78;6.28;;;34.20;14.70;;;;;;5035850;28;20230;-90
2021/09/10 10:21:50;;;;;;;7.38;6.75;;;35.00;14.60;;;;;;5038291;28;20313;-90
2021/09/10 10:24:53;;;;;;;7.75;7.05;;;34.30;14.50;;;;;;5029009;28;20652;-90
2021/09/10 10:27:40;;;;;;;7.90;7.20;;;33.60;15.80;;;;;;5028384;28;20304;-88
2021/09/10 10:30:30;;;;;;;7.88;7.18;;;32.10;17.70;;;;;;5034915;28;20378;-88
2021/09/10 10:32:57;;;;;;;7.32;6.68;;;32.00;16.70;;;;;;5044177;28;20233;-88
2021/09/10 10:35:26;;;;;;;9.00;6.30;;;32.60;17.90;;;;;;5034704;28;20252;-88
2021/09/10 10:37:54;;;;;;;7.13;6.47;;;33.60;18.40;;;;;;5034969;28;20226;-88
2021/09/10 10:40:31;;;;;;;7.22;6.53;;;34.10;15.70;;;;;;5031552;28;20228;-89
2021/09/10 10:43:02;;;;;;;11.63;7.22;;;34.10;15.60;;;;;;5034724;28;20202;-88
2021/09/10 10:46:09;;;;;;;7.30;6.47;;;33.60;15.40;;;;;;5025697;28;20253;-87
2021/09/10 10:48:51;;;;;;;8.02;7.22;;;33.40;15.60;;;;;;5039891;28;20197;-87
2021/09/10 10:51:51;;;;;;;8.63;6.20;;;32.60;15.70;;;;;;5039853;28;20217;-89
2021/09/10 10:54:26;;;;;;;21.75;19.67;;;33.10;18.20;;;;;;5031452;28;20190;-87
2021/09/10 10:56:53;;;;;;;7.70;6.90;;;32.60;16.40;;;;;;5032945;28;20225;-87
2021/09/10 10:59:36;;;;;;;7.28;6.57;;;33.10;15.40;;;;;;5023441;28;20322;-88
2021/09/10 11:02:38;;;;;;;7.03;6.43;;;33.00;16.30;;;;;;5038657;28;20645;-88
2021/09/10 11:05:26;;;;;;;7.50;6.85;;;32.50;16.90;;;;;;5028239;28;20228;-87
2021/09/10 11:07:53;;;;;;;7.10;6.50;;;31.30;17.20;;;;;;5028626;28;20242;-87
2021/09/10 11:10:20;;;;;;;7.05;6.35;;;30.90;18.50;;;;;;5034008;28;20201;-87
2021/09/10 11:12:50;;;;;;;8.18;6.68;;;30.10;20.00;;;;;;5031233;28;20242;-87
2021/09/10 11:15:19;;;;;;;7.90;6.32;;;29.90;21.80;;;;;;5030527;28;20202;-87
2021/09/10 11:17:53;;;;;;;7.70;6.43;;;29.10;21.90;;;;;;5032616;28;20222;-87
2021/09/10 11:20:27;;;;;;;7.38;6.13;;;28.60;23.80;;;;;;5036228;28;20198;-87
2021/09/10 11:22:54;;;;;;;6.57;5.95;;;28.80;25.10;;;;;;5033001;28;20205;-87
2021/09/10 11:25:21;;;;;;;7.65;6.43;;;29.00;26.00;;;;;;5037979;28;20270;-87
2021/09/10 11:27:48;;;;;;;8.43;7.30;;;28.70;23.80;;;;;;5029557;28;20213;-87
2021/09/10 11:30:16;;;;;;;6.35;5.75;;;28.30;24.60;;;;;;5036576;28;20308;-87
2021/09/10 11:35:22;;;;;;;7.00;6.40;;;28.50;26.70;;;;;;5135663;27;20975;-87
2021/09/10 11:37:55;;;;;;;7.72;7.03;;;28.60;24.80;;;;;;5072538;28;20215;-86
2021/09/10 11:40:30;;;;;;;7.18;6.47;;;28.50;24.60;;;;;;5075903;28;20670;-86
2021/09/10 11:43:03;;;;;;;9.38;6.90;;;28.40;26.60;;;;;;5088419;28;20286;-86
2021/09/10 11:45:34;;;;;;;8.02;6.65;;;28.40;25.30;;;;;;5079275;28;20223;-86
2021/09/10 11:48:01;;;;;;;10.35;7.07;;;28.20;25.40;;;;;;5072171;28;20201;-86
2021/09/10 11:50:52;;;;;;;7.90;6.97;;;27.60;26.10;;;;;;5069048;28;20283;-85
2021/09/10 11:53:23;;;;;;;8.73;6.80;;;27.60;26.10;;;;;;5071704;28;20228;-86
2021/09/10 11:56:02;;;;;;;13.48;7.03;;;27.60;28.40;;;;;;5067713;28;20232;-85
2021/09/10 11:58:41;;;;;;;8.52;6.50;;;27.60;26.40;;;;;;5071248;28;20279;-87
2021/09/10 12:01:23;;;;;;;8.50;6.47;;;27.30;27.90;;;;;;5074279;28;20225;-86
2021/09/10 12:03:55;;;;;;;9.50;6.80;;;26.70;28.80;;;;;;5074628;28;20201;-87
2021/09/10 12:06:30;;;;;;;10.43;7.15;;;26.50;29.70;;;;;;5077628;28;20227;-87
2021/09/10 12:09:11;;;;;;;10.02;7.85;;;26.40;30.30;;;;;;5076796;28;20192;-86
2021/09/10 12:11:39;;;;;;;10.60;7.18;;;26.10;30.40;;;;;;5064650;28;20357;-87
2021/09/10 12:14:16;;;;;;;12.40;7.72;;;25.90;31.60;;;;;;5084188;28;20312;-85
2021/09/10 12:16:43;;;;;;;10.80;6.95;;;25.80;34.10;;;;;;5076236;28;20304;-85
2021/09/10 12:19:11;;;;;;;8.43;7.63;;;25.60;33.40;;;;;;5071864;28;20288;-86
2021/09/10 12:21:40;;;;;;;10.40;6.72;;;25.50;34.60;;;;;;5063167;28;20218;-85
2021/09/10 12:24:08;;;;;;;8.90;6.85;;;25.60;35.10;;;;;;5072024;28;20212;-86
2021/09/10 12:26:49;;;;;;;8.68;7.07;;;25.60;33.50;;;;;;5071616;28;20214;-86
2021/09/10 12:29:21;;;;;;;9.98;7.13;;;25.60;32.80;;;;;;5070933;28;20268;-86
2021/09/10 12:31:48;;;;;;;8.20;6.97;;;25.70;32.80;;;;;;5061832;28;20234;-85
2021/09/10 12:34:15;;;;;;;9.50;7.03;;;26.00;31.20;;;;;;5043208;28;20243;-86
2021/09/10 12:36:44;;;;;;;8.23;7.32;;;26.20;30.50;;;;;;5049494;28;20297;-86
2021/09/10 12:39:11;;;;;;;14.05;7.93;;;26.40;32.20;;;;;;5039628;28;20198;-91
2021/09/10 12:41:39;;;;;;;10.32;7.28;;;26.40;32.60;;;;;;5043130;28;20242;-91
2021/09/10 12:44:25;;;;;;;8.00;7.15;;;26.40;31.20;;;;;;5043527;28;20211;-92
2021/09/10 12:49:33;;;;;;;8.68;7.03;;;25.50;36.50;;;;;;5034576;28;20270;-92
2021/09/10 12:52:02;;;;;;;10.98;7.22;;;25.70;34.20;;;;;;5036134;28;20300;-86
2021/09/10 12:54:32;;;;;;;10.65;7.45;;;25.80;34.30;;;;;;5035775;28;20302;-83
2021/09/10 12:56:59;;;;;;;8.30;7.32;;;25.90;33.80;;;;;;5026933;28;20231;-83